Time;durP1;ratioP1;P1;durP2;ratioP2;P2;SDS_P1;SDS_P2;PMS_P1;PMS_P2;Temp;Humidity;BMP_temperature;BMP_pressure;BME280_temperature;BME280_humidity;BME280_pressure;Samples;Min_cycle;Max_cycle;Signal;HPM_P1;HPM_P2
2022/04/14 00:01:38;;;;;;;13.13;5.40;;;9.30;99.90;;;;;;4979359;28;20213;-66
2022/04/14 00:04:04;;;;;;;13.73;5.90;;;9.30;99.90;;;;;;4994788;28;20175;-67
2022/04/14 00:06:30;;;;;;;13.13;5.60;;;9.30;99.90;;;;;;4994841;28;20488;-67
2022/04/14 00:08:56;;;;;;;16.40;5.80;;;9.30;99.90;;;;;;4994745;28;20695;-67
2022/04/14 00:11:22;;;;;;;14.10;5.33;;;9.30;99.90;;;;;;4990018;28;20180;-67
2022/04/14 00:13:47;;;;;;;15.10;5.33;;;9.30;99.90;;;;;;4975170;28;20635;-68
2022/04/14 00:16:13;;;;;;;14.50;5.87;;;9.20;99.90;;;;;;4975276;28;20183;-68
2022/04/14 00:18:39;;;;;;;12.47;6.07;;;9.10;99.90;;;;;;4975122;28;20187;-67
2022/04/14 00:21:05;;;;;;;12.63;5.47;;;9.10;99.90;;;;;;4975138;28;20552;-68
2022/04/14 00:23:31;;;;;;;16.03;6.43;;;9.10;99.90;;;;;;4974998;28;20172;-67
2022/04/14 00:25:57;;;;;;;16.30;5.83;;;9.00;99.90;;;;;;4974766;28;20178;-67
2022/04/14 00:28:22;;;;;;;16.27;6.27;;;9.00;99.90;;;;;;4974691;28;20557;-67
2022/04/14 00:30:48;;;;;;;14.00;5.83;;;9.00;99.90;;;;;;4975034;28;20176;-67
2022/04/14 00:33:14;;;;;;;15.27;5.80;;;9.00;99.90;;;;;;4974865;28;20248;-67
2022/04/14 00:35:40;;;;;;;13.83;5.67;;;9.00;99.90;;;;;;4974810;28;20183;-67
2022/04/14 00:38:06;;;;;;;15.07;6.30;;;9.00;99.90;;;;;;4974682;28;20226;-67
2022/04/14 00:40:32;;;;;;;13.10;6.17;;;9.00;99.90;;;;;;4974798;28;20178;-66
2022/04/14 00:42:57;;;;;;;16.53;6.20;;;8.90;99.90;;;;;;4974798;28;20184;-68
2022/04/14 00:45:23;;;;;;;17.33;6.10;;;8.90;99.90;;;;;;4973475;28;20176;-68
2022/04/14 00:47:54;;;;;;;13.27;6.63;;;8.90;99.90;;;;;;4974635;28;20212;-67
2022/04/14 00:50:20;;;;;;;12.93;6.53;;;8.90;99.90;;;;;;4974640;28;20178;-68
2022/04/14 00:52:47;;;;;;;12.93;6.80;;;8.80;99.90;;;;;;4974688;28;20176;-68
2022/04/14 00:55:17;;;;;;;18.37;6.80;;;8.70;99.90;;;;;;4977829;28;20194;-63
2022/04/14 00:57:44;;;;;;;14.60;6.47;;;8.70;99.90;;;;;;4984690;28;20185;-67
2022/04/14 01:00:10;;;;;;;14.53;6.40;;;8.70;99.90;;;;;;4993975;28;20179;-67
2022/04/14 01:02:36;;;;;;;18.87;7.00;;;8.60;99.90;;;;;;4975102;28;20688;-67
2022/04/14 01:05:04;;;;;;;15.70;7.00;;;8.50;99.90;;;;;;4973951;28;20180;-65
2022/04/14 01:07:33;;;;;;;15.00;7.23;;;8.50;99.90;;;;;;4974338;28;20210;-65
2022/04/14 01:09:59;;;;;;;16.60;7.10;;;8.50;99.90;;;;;;4975213;28;20218;-65
2022/04/14 01:12:26;;;;;;;18.03;7.63;;;8.40;99.90;;;;;;4976801;28;20266;-64
2022/04/14 01:14:52;;;;;;;21.17;8.13;;;8.40;99.90;;;;;;4974605;28;20180;-64
2022/04/14 01:17:18;;;;;;;19.77;7.90;;;8.40;99.90;;;;;;4974332;28;20180;-66
2022/04/14 01:19:44;;;;;;;13.73;7.57;;;8.40;99.90;;;;;;4974174;28;20636;-66
2022/04/14 01:22:18;;;;;;;15.87;8.00;;;8.30;99.90;;;;;;4976572;28;20322;-67
2022/04/14 01:24:44;;;;;;;21.43;7.87;;;8.40;99.90;;;;;;4976758;28;20257;-67
2022/04/14 01:27:10;;;;;;;12.73;7.47;;;8.30;99.90;;;;;;4974155;28;20252;-67
2022/04/14 01:29:36;;;;;;;15.97;6.20;;;8.40;99.90;;;;;;4974036;28;20274;-67
2022/04/14 01:32:02;;;;;;;17.07;6.93;;;8.40;99.90;;;;;;4973844;28;20221;-66
2022/04/14 01:34:31;;;;;;;16.57;7.23;;;8.30;99.90;;;;;;4973838;28;20179;-66
2022/04/14 01:36:58;;;;;;;14.17;6.03;;;8.20;99.90;;;;;;4973635;28;20305;-66
2022/04/14 01:39:24;;;;;;;12.93;6.60;;;8.20;99.90;;;;;;4973993;28;20191;-66
2022/04/14 01:41:50;;;;;;;16.77;7.40;;;8.20;99.90;;;;;;4973665;28;20183;-66
2022/04/14 01:44:16;;;;;;;15.70;6.80;;;8.20;99.90;;;;;;4973710;28;20172;-66
2022/04/14 01:46:42;;;;;;;16.00;7.10;;;8.20;99.90;;;;;;4973559;28;20179;-65
2022/04/14 01:49:11;;;;;;;14.97;7.90;;;8.30;99.90;;;;;;4987942;28;20217;-65
2022/04/14 01:51:37;;;;;;;13.77;7.53;;;8.30;99.90;;;;;;4991658;28;20172;-63
2022/04/14 01:54:04;;;;;;;20.23;8.27;;;8.30;99.90;;;;;;4993045;28;20195;-63
2022/04/14 01:56:30;;;;;;;16.97;7.70;;;8.30;99.90;;;;;;4992931;28;20701;-63
2022/04/14 01:58:56;;;;;;;15.23;8.10;;;8.30;99.90;;;;;;4992809;28;20180;-63
2022/04/14 02:01:22;;;;;;;24.80;8.60;;;8.30;99.90;;;;;;4992865;28;20254;-63
2022/04/14 02:03:48;;;;;;;22.03;9.57;;;8.40;99.90;;;;;;4992760;28;20775;-63
2022/04/14 02:06:14;;;;;;;20.27;9.13;;;8.40;99.90;;;;;;4992730;28;20171;-63
2022/04/14 02:08:40;;;;;;;20.60;9.43;;;8.40;99.90;;;;;;4992760;28;20219;-64
2022/04/14 02:11:10;;;;;;;15.63;7.43;;;8.40;99.90;;;;;;4992750;28;20167;-64
2022/04/14 02:13:36;;;;;;;18.80;7.90;;;8.30;99.90;;;;;;4991990;28;20183;-64
2022/04/14 02:16:02;;;;;;;18.30;8.03;;;8.30;99.90;;;;;;4992484;28;20176;-64
2022/04/14 02:18:28;;;;;;;16.07;8.00;;;8.20;99.90;;;;;;4992427;28;20172;-63
2022/04/14 02:20:54;;;;;;;22.60;8.07;;;8.70;99.90;;;;;;4992397;28;20178;-64
2022/04/14 02:23:19;;;;;;;17.83;8.50;;;8.10;99.90;;;;;;4992580;28;20181;-64
2022/04/14 02:25:45;;;;;;;20.63;9.00;;;8.10;99.90;;;;;;4990956;28;20171;-64
2022/04/14 02:28:13;;;;;;;20.27;9.40;;;8.00;99.90;;;;;;4992183;28;20238;-64
2022/04/14 02:30:39;;;;;;;19.37;9.17;;;8.10;99.90;;;;;;4992374;28;20249;-64
2022/04/14 02:33:05;;;;;;;18.57;8.17;;;8.10;99.90;;;;;;4992036;28;20642;-64
2022/04/14 02:35:31;;;;;;;15.93;8.37;;;8.10;99.90;;;;;;4990859;28;20172;-65
2022/04/14 02:37:57;;;;;;;21.10;8.53;;;7.90;99.90;;;;;;4991792;28;20765;-65
2022/04/14 02:40:24;;;;;;;18.53;9.30;;;8.10;99.90;;;;;;4992129;28;20187;-65
2022/04/14 02:42:53;;;;;;;15.43;8.83;;;8.00;99.90;;;;;;4992069;28;20171;-65
2022/04/14 02:45:19;;;;;;;20.20;8.43;;;8.00;99.90;;;;;;4991870;28;20549;-66
2022/04/14 02:47:45;;;;;;;17.57;8.37;;;8.10;99.90;;;;;;4974402;28;20226;-64
2022/04/14 02:50:11;;;;;;;17.20;8.83;;;8.10;99.90;;;;;;4991830;28;20175;-63
2022/04/14 02:52:37;;;;;;;21.07;8.37;;;8.10;99.90;;;;;;4991846;28;20536;-64
2022/04/14 02:55:04;;;;;;;16.10;7.83;;;8.00;99.90;;;;;;4991690;28;20651;-65
2022/04/14 02:57:30;;;;;;;18.03;8.57;;;8.10;99.90;;;;;;4991675;28;20214;-65
2022/04/14 02:59:57;;;;;;;16.63;7.80;;;8.10;99.90;;;;;;4991729;28;20183;-66
2022/04/14 03:02:23;;;;;;;14.73;7.43;;;8.10;99.90;;;;;;4988252;28;20253;-65
2022/04/14 03:04:49;;;;;;;20.60;8.27;;;8.10;99.90;;;;;;4980637;28;20225;-65
2022/04/14 03:07:15;;;;;;;23.40;8.40;;;8.10;99.90;;;;;;4991538;28;20231;-65
2022/04/14 03:09:41;;;;;;;18.27;8.00;;;8.10;99.90;;;;;;4976804;28;20179;-65
2022/04/14 03:12:07;;;;;;;13.10;7.30;;;7.90;99.90;;;;;;4972341;28;20246;-65
2022/04/14 03:14:33;;;;;;;16.57;8.17;;;7.90;99.90;;;;;;4972117;28;20662;-65
2022/04/14 03:16:59;;;;;;;15.30;8.17;;;7.80;99.90;;;;;;4971879;28;20172;-65
2022/04/14 03:19:25;;;;;;;12.73;7.10;;;7.70;99.90;;;;;;4970636;28;20180;-64
2022/04/14 03:21:51;;;;;;;13.03;6.90;;;7.60;99.90;;;;;;4970553;28;20254;-66
2022/04/14 03:24:17;;;;;;;16.73;7.80;;;7.60;99.90;;;;;;4971686;28;20179;-66
2022/04/14 03:26:42;;;;;;;17.30;8.03;;;7.50;99.90;;;;;;4971683;28;20254;-66
2022/04/14 03:29:08;;;;;;;17.27;7.83;;;7.50;99.90;;;;;;4971987;28;20295;-65
2022/04/14 03:31:34;;;;;;;14.03;7.30;;;7.50;99.90;;;;;;4972057;28;20227;-66
2022/04/14 03:34:00;;;;;;;17.50;7.80;;;7.50;99.90;;;;;;4972185;28;20193;-66
2022/04/14 03:36:26;;;;;;;16.23;7.97;;;7.40;99.90;;;;;;4971805;28;20172;-66
2022/04/14 03:38:51;;;;;;;16.50;7.20;;;7.40;99.90;;;;;;4971483;28;20600;-66
2022/04/14 03:41:17;;;;;;;14.83;6.80;;;7.40;99.90;;;;;;4970489;28;20184;-66
2022/04/14 03:43:43;;;;;;;11.70;6.63;;;7.50;99.90;;;;;;4971813;28;20300;-66
2022/04/14 03:46:09;;;;;;;16.67;7.47;;;7.50;99.90;;;;;;4971778;28;20218;-65
2022/04/14 03:48:35;;;;;;;15.87;7.20;;;7.60;99.90;;;;;;4981754;28;20555;-65
2022/04/14 03:51:01;;;;;;;16.90;7.57;;;7.80;99.90;;;;;;4991255;28;20230;-66
2022/04/14 03:53:27;;;;;;;14.03;7.43;;;7.90;99.90;;;;;;4991048;28;20197;-65
2022/04/14 03:55:53;;;;;;;16.30;8.27;;;8.00;99.90;;;;;;4991232;28;20171;-65
2022/04/14 03:58:19;;;;;;;13.57;7.33;;;8.30;99.90;;;;;;4976851;28;20183;-64
2022/04/14 04:00:45;;;;;;;17.10;8.10;;;8.10;99.90;;;;;;4971710;28;20199;-64
2022/04/14 04:03:12;;;;;;;17.60;7.40;;;8.10;99.90;;;;;;4971761;28;20503;-64
2022/04/14 04:05:38;;;;;;;14.00;7.00;;;8.20;99.90;;;;;;4971701;28;20658;-64
2022/04/14 04:08:05;;;;;;;13.80;7.63;;;8.20;99.90;;;;;;4971653;28;20208;-61
2022/04/14 04:10:31;;;;;;;14.50;7.50;;;8.20;99.90;;;;;;4970536;28;20172;-66
2022/04/14 04:12:57;;;;;;;12.80;7.07;;;8.30;99.90;;;;;;4971595;28;20187;-66
2022/04/14 04:15:23;;;;;;;12.90;7.30;;;8.40;99.90;;;;;;4971324;28;20586;-65
2022/04/14 04:17:51;;;;;;;15.07;6.80;;;8.50;99.90;;;;;;4971571;28;20519;-66
2022/04/14 04:20:18;;;;;;;18.80;7.37;;;8.60;99.90;;;;;;4971621;28;20169;-66
2022/04/14 04:22:44;;;;;;;19.50;8.13;;;8.60;99.90;;;;;;4971381;28;20227;-66
2022/04/14 04:25:10;;;;;;;15.57;8.23;;;8.60;99.90;;;;;;4971445;28;20183;-66
2022/04/14 04:27:37;;;;;;;19.00;7.93;;;8.70;99.90;;;;;;4971506;28;20239;-65
2022/04/14 04:30:07;;;;;;;14.30;7.53;;;8.70;99.90;;;;;;4971380;28;20227;-65
2022/04/14 04:32:33;;;;;;;13.97;7.63;;;8.80;99.90;;;;;;4971293;28;20226;-65
2022/04/14 04:35:09;;;;;;;16.97;7.87;;;8.90;99.90;;;;;;4971408;28;20184;-66
2022/04/14 04:37:35;;;;;;;17.13;7.87;;;8.80;99.90;;;;;;4973795;28;20773;-65
2022/04/14 04:40:01;;;;;;;18.23;8.10;;;8.90;99.90;;;;;;4974693;28;20176;-65
2022/04/14 04:42:27;;;;;;;23.23;8.10;;;8.90;99.90;;;;;;4974671;28;20183;-65
2022/04/14 04:44:53;;;;;;;17.17;7.53;;;8.90;99.90;;;;;;4974701;28;20648;-65
2022/04/14 04:47:22;;;;;;;15.33;8.40;;;8.90;99.90;;;;;;4974705;28;20208;-65
2022/04/14 04:49:47;;;;;;;12.40;7.93;;;8.90;99.90;;;;;;4994056;28;20374;-65
2022/04/14 04:52:14;;;;;;;17.43;7.80;;;8.90;99.90;;;;;;4994081;28;20179;-65
2022/04/14 04:54:40;;;;;;;16.23;7.57;;;8.90;99.90;;;;;;4992659;28;20541;-65
2022/04/14 04:57:06;;;;;;;11.77;6.13;;;8.80;99.90;;;;;;4993268;28;20163;-65
2022/04/14 04:59:33;;;;;;;12.73;6.80;;;8.70;99.90;;;;;;4993741;28;20175;-65
2022/04/14 05:01:59;;;;;;;12.87;6.80;;;8.70;99.90;;;;;;4993620;28;20203;-64
2022/04/14 05:04:25;;;;;;;15.93;6.90;;;8.60;99.90;;;;;;4993341;28;20578;-67
2022/04/14 05:06:50;;;;;;;16.67;7.50;;;8.70;99.90;;;;;;4992216;28;20180;-64
2022/04/14 05:09:16;;;;;;;14.33;7.10;;;8.60;99.90;;;;;;4993467;28;20694;-61
2022/04/14 05:11:42;;;;;;;15.97;7.20;;;8.60;99.90;;;;;;4991855;28;20638;-64
2022/04/14 05:14:09;;;;;;;16.13;7.17;;;8.70;99.90;;;;;;4993609;28;20179;-65
2022/04/14 05:16:35;;;;;;;19.60;7.87;;;8.70;99.90;;;;;;4993083;28;20185;-64
2022/04/14 05:19:01;;;;;;;13.70;7.10;;;8.80;99.90;;;;;;4993125;28;20183;-65
2022/04/14 05:21:26;;;;;;;13.73;8.03;;;8.80;99.90;;;;;;4993343;28;20184;-64
2022/04/14 05:23:52;;;;;;;16.27;7.83;;;8.80;99.90;;;;;;4993130;28;20646;-65
2022/04/14 05:26:18;;;;;;;14.23;8.03;;;8.80;99.90;;;;;;4992124;28;20769;-65
2022/04/14 05:28:44;;;;;;;14.40;7.63;;;8.20;99.90;;;;;;4993330;28;20241;-65
2022/04/14 05:31:10;;;;;;;14.27;7.27;;;8.90;99.90;;;;;;4993125;28;20186;-64
2022/04/14 05:33:36;;;;;;;15.83;7.73;;;8.90;99.90;;;;;;4993394;28;20175;-65
2022/04/14 05:36:02;;;;;;;17.37;7.83;;;9.00;99.90;;;;;;4993265;28;20258;-65
2022/04/14 05:38:27;;;;;;;18.37;8.87;;;9.00;99.90;;;;;;4993165;28;20301;-64
2022/04/14 05:40:54;;;;;;;16.60;7.53;;;9.10;99.90;;;;;;4992927;28;20182;-65
2022/04/14 05:43:28;;;;;;;13.13;7.70;;;9.10;99.90;;;;;;4992772;28;20245;-65
2022/04/14 05:45:57;;;;;;;20.40;8.07;;;9.20;99.90;;;;;;4991757;28;20175;-64
2022/04/14 05:48:23;;;;;;;21.57;8.80;;;9.20;99.90;;;;;;4991973;28;20213;-64
2022/04/14 05:50:49;;;;;;;19.43;8.63;;;9.20;99.90;;;;;;4992833;28;20184;-64
2022/04/14 05:53:16;;;;;;;23.07;9.33;;;9.30;99.90;;;;;;4992319;28;20226;-64
2022/04/14 05:55:44;;;;;;;22.03;8.40;;;9.30;99.90;;;;;;4977223;28;20183;-65
2022/04/14 05:58:12;;;;;;;17.50;8.73;;;9.30;99.90;;;;;;4992325;28;20186;-65
2022/04/14 06:00:38;;;;;;;22.67;9.20;;;9.30;99.90;;;;;;4992532;28;20191;-65
2022/04/14 06:03:04;;;;;;;15.70;7.87;;;9.30;99.90;;;;;;4992340;28;20610;-66
2022/04/14 06:05:31;;;;;;;20.50;9.63;;;9.40;99.90;;;;;;4992302;28;20266;-65
2022/04/14 06:07:57;;;;;;;20.80;9.00;;;9.30;99.90;;;;;;4992209;28;20222;-64
2022/04/14 06:10:24;;;;;;;45.93;10.40;;;9.40;99.90;;;;;;4991336;28;20222;-64
2022/04/14 06:12:50;;;;;;;54.90;9.73;;;9.50;99.90;;;;;;4992064;28;20627;-63
2022/04/14 06:15:17;;;;;;;32.57;9.53;;;9.60;99.90;;;;;;4991089;28;20202;-66
2022/04/14 06:17:44;;;;;;;37.57;10.10;;;9.60;99.90;;;;;;4989883;28;20262;-61
2022/04/14 06:20:11;;;;;;;24.73;7.97;;;9.60;99.90;;;;;;4988696;28;20646;-61
2022/04/14 06:22:41;;;;;;;30.00;8.53;;;9.70;99.90;;;;;;4974141;28;20722;-60
2022/04/14 06:25:12;;;;;;;19.83;8.37;;;9.80;99.90;;;;;;4989939;28;20179;-59
2022/04/14 06:27:41;;;;;;;22.70;8.90;;;9.80;99.90;;;;;;4991561;28;20290;-58
2022/04/14 06:30:11;;;;;;;20.87;9.37;;;9.90;99.90;;;;;;4991853;28;20261;-59
2022/04/14 06:32:37;;;;;;;25.97;9.60;;;9.90;99.90;;;;;;4992097;28;20221;-59
2022/04/14 06:35:08;;;;;;;28.90;8.73;;;9.90;99.90;;;;;;4991704;28;20704;-61
2022/04/14 06:37:34;;;;;;;33.20;9.30;;;10.00;99.90;;;;;;4991920;28;20290;-59
2022/04/14 06:40:00;;;;;;;30.87;9.27;;;10.10;99.90;;;;;;4990794;28;20229;-58
2022/04/14 06:42:26;;;;;;;28.43;8.90;;;10.10;99.90;;;;;;4991635;28;20167;-61
2022/04/14 06:44:56;;;;;;;16.73;8.33;;;10.10;99.90;;;;;;4991295;28;20182;-61
2022/04/14 06:47:22;;;;;;;18.27;8.00;;;10.20;99.90;;;;;;4972405;28;20548;-61
2022/04/14 06:49:48;;;;;;;18.70;8.33;;;10.10;99.90;;;;;;4979099;28;20187;-60
2022/04/14 06:52:14;;;;;;;18.23;9.00;;;10.10;99.90;;;;;;4991848;28;20178;-61
2022/04/14 06:54:40;;;;;;;23.43;9.37;;;10.20;99.90;;;;;;4991855;28;20198;-62
2022/04/14 06:57:05;;;;;;;22.60;8.87;;;9.70;99.90;;;;;;4991813;28;20179;-62
2022/04/14 06:59:31;;;;;;;21.10;8.63;;;10.20;99.90;;;;;;4991752;28;20638;-62
2022/04/14 07:01:57;;;;;;;19.83;8.80;;;10.30;99.90;;;;;;4990015;28;20713;-62
2022/04/14 07:04:23;;;;;;;20.83;8.50;;;10.30;99.90;;;;;;4991470;28;20183;-62
2022/04/14 07:06:48;;;;;;;21.23;8.57;;;10.30;99.90;;;;;;4991617;28;20635;-57
2022/04/14 07:09:14;;;;;;;16.17;8.40;;;10.30;99.90;;;;;;4991183;28;20219;-65
2022/04/14 07:11:40;;;;;;;19.17;9.13;;;10.40;99.90;;;;;;4991565;28;20179;-62
2022/04/14 07:14:06;;;;;;;16.50;8.40;;;10.40;99.90;;;;;;4990542;28;20179;-63
2022/04/14 07:16:31;;;;;;;18.50;8.60;;;10.40;99.90;;;;;;4991162;28;20241;-64
2022/04/14 07:18:57;;;;;;;16.73;8.40;;;10.50;99.90;;;;;;4991518;28;20183;-64
2022/04/14 07:21:23;;;;;;;22.00;8.87;;;10.50;99.90;;;;;;4991484;28;20186;-60
2022/04/14 07:23:49;;;;;;;19.73;7.87;;;10.30;99.90;;;;;;4991093;28;20163;-59
2022/04/14 07:26:14;;;;;;;22.27;9.03;;;10.40;99.90;;;;;;4990898;28;20697;-58
2022/04/14 07:28:40;;;;;;;16.13;8.30;;;10.40;99.90;;;;;;4985060;28;20217;-58
2022/04/14 07:31:06;;;;;;;19.70;8.43;;;10.50;99.90;;;;;;4990681;28;20212;-59
2022/04/14 07:33:34;;;;;;;18.63;8.70;;;10.60;99.90;;;;;;4991411;28;20531;-58
2022/04/14 07:36:00;;;;;;;25.43;9.53;;;10.60;99.90;;;;;;4991078;28;20202;-58
2022/04/14 07:38:25;;;;;;;23.00;9.17;;;10.70;99.90;;;;;;4990927;28;20714;-58
2022/04/14 07:40:52;;;;;;;19.30;9.53;;;10.80;99.90;;;;;;4991177;28;20238;-59
2022/04/14 07:43:19;;;;;;;22.03;8.67;;;10.90;99.90;;;;;;4991194;28;20175;-59
2022/04/14 07:45:45;;;;;;;24.03;8.70;;;11.00;99.90;;;;;;4990913;28;20179;-66
2022/04/14 07:48:11;;;;;;;21.97;9.70;;;11.00;99.90;;;;;;4990557;28;20278;-64
2022/04/14 07:50:37;;;;;;;23.27;9.23;;;11.10;99.90;;;;;;4990563;28;20179;-64
2022/04/14 07:53:03;;;;;;;23.40;9.27;;;11.10;99.90;;;;;;4991210;28;20595;-64
2022/04/14 07:55:33;;;;;;;21.30;8.80;;;11.20;99.90;;;;;;4987197;28;20179;-64
2022/04/14 07:58:07;;;;;;;20.80;8.83;;;11.20;99.90;;;;;;4991194;28;20190;-64
2022/04/14 08:00:34;;;;;;;29.40;9.87;;;11.30;99.90;;;;;;4990857;28;20733;-64
2022/04/14 08:03:01;;;;;;;23.13;9.57;;;11.40;99.90;;;;;;4991323;28;20185;-64
2022/04/14 08:05:34;;;;;;;26.70;9.67;;;11.50;99.90;;;;;;4990665;28;20191;-63
2022/04/14 08:08:05;;;;;;;29.90;9.40;;;11.60;99.90;;;;;;4973420;28;20690;-59
2022/04/14 08:10:33;;;;;;;23.50;9.00;;;11.60;99.90;;;;;;4989414;28;20900;-63
2022/04/14 08:12:59;;;;;;;19.73;8.87;;;11.70;99.90;;;;;;4994661;28;20188;-63
2022/04/14 08:15:25;;;;;;;20.93;8.40;;;11.80;99.90;;;;;;4994586;28;20180;-63
2022/04/14 08:17:51;;;;;;;25.37;9.40;;;11.90;99.90;;;;;;4994171;28;20186;-65
2022/04/14 08:20:17;;;;;;;18.30;9.23;;;12.00;99.90;;;;;;4994530;28;20263;-65
2022/04/14 08:22:56;;;;;;;24.67;10.53;;;12.10;99.90;;;;;;4994541;28;20190;-64
2022/04/14 08:25:24;;;;;;;18.35;9.50;;;12.20;99.90;;;;;;4994245;28;20640;-64
2022/04/14 08:27:52;;;;;;;21.55;9.57;;;12.20;99.90;;;;;;4994162;28;20298;-64
2022/04/14 08:30:20;;;;;;;22.55;9.32;;;12.40;99.90;;;;;;4992818;28;20254;-64
2022/04/14 08:32:47;;;;;;;27.87;9.43;;;12.40;99.90;;;;;;4992348;28;20218;-65
2022/04/14 08:35:14;;;;;;;26.13;8.98;;;12.50;99.90;;;;;;4992349;28;20183;-64
2022/04/14 08:37:41;;;;;;;40.60;10.02;;;12.50;99.90;;;;;;4992224;28;20222;-64
2022/04/14 08:40:09;;;;;;;32.47;9.90;;;12.60;99.90;;;;;;4992294;28;20179;-64
2022/04/14 08:42:56;;;;;;;35.30;10.00;;;12.60;99.90;;;;;;4992540;28;20187;-64
2022/04/14 08:45:25;;;;;;;30.80;9.98;;;12.80;99.90;;;;;;4993669;28;20176;-64
2022/04/14 08:47:51;;;;;;;30.52;9.57;;;12.90;99.90;;;;;;4993964;28;20590;-64
2022/04/14 08:50:18;;;;;;;37.05;10.00;;;12.90;99.90;;;;;;4993711;28;20180;-64
2022/04/14 08:52:44;;;;;;;33.95;10.60;;;13.10;99.90;;;;;;4994055;28;20168;-65
2022/04/14 08:55:12;;;;;;;31.73;9.98;;;13.20;99.90;;;;;;4993896;28;20646;-64
2022/04/14 08:57:41;;;;;;;33.90;10.50;;;13.30;99.90;;;;;;4994036;28;20183;-62
2022/04/14 09:00:09;;;;;;;34.45;10.32;;;14.00;99.90;;;;;;4993689;28;20202;-63
2022/04/14 09:02:35;;;;;;;34.78;11.07;;;13.50;99.90;;;;;;4993188;28;20171;-64
2022/04/14 09:05:03;;;;;;;43.53;10.38;;;13.70;99.90;;;;;;4993761;28;20250;-64
2022/04/14 09:07:29;;;;;;;35.92;10.55;;;13.90;99.90;;;;;;4993908;28;20274;-64
2022/04/14 09:09:54;;;;;;;1999.90;709.60;;;14.00;99.90;;;;;;4981543;28;20603;-64
2022/04/14 09:12:21;;;;;;;256.02;29.17;;;13.90;99.90;;;;;;4974156;28;20183;-64
2022/04/14 09:14:47;;;;;;;45.55;10.65;;;14.20;99.90;;;;;;4974363;28;20183;-63
2022/04/14 09:17:13;;;;;;;42.05;9.85;;;14.30;99.90;;;;;;4973969;28;20176;-63
2022/04/14 09:19:39;;;;;;;31.10;8.65;;;14.50;99.90;;;;;;4973945;28;20182;-64
2022/04/14 09:22:09;;;;;;;26.52;8.55;;;14.80;99.90;;;;;;4973363;28;20251;-64
2022/04/14 09:24:42;;;;;;;29.65;8.60;;;15.00;99.90;;;;;;4973544;28;20282;-64
2022/04/14 09:27:09;;;;;;;29.30;7.90;;;15.10;99.90;;;;;;4974030;28;20174;-63
2022/04/14 09:29:35;;;;;;;28.30;7.95;;;15.40;99.90;;;;;;4973913;28;20191;-63
2022/04/14 09:32:01;;;;;;;23.35;7.43;;;15.60;99.90;;;;;;4973912;28;20164;-63
2022/04/14 09:34:51;;;;;;;28.08;7.93;;;15.70;99.90;;;;;;4973666;28;20185;-63
2022/04/14 09:37:18;;;;;;;22.02;7.88;;;15.70;99.90;;;;;;4973645;28;20184;-64
2022/04/14 09:39:50;;;;;;;25.77;8.20;;;15.80;99.90;;;;;;4973693;28;20195;-64
2022/04/14 09:42:16;;;;;;;21.15;7.70;;;15.90;99.90;;;;;;4973482;28;20186;-63
2022/04/14 09:44:42;;;;;;;23.63;7.45;;;15.90;99.90;;;;;;4973523;28;20172;-64
2022/04/14 09:47:08;;;;;;;19.77;7.72;;;15.90;99.90;;;;;;4973414;28;20182;-63
2022/04/14 09:49:40;;;;;;;21.20;7.30;;;15.70;99.90;;;;;;4973647;28;20724;-64
2022/04/14 09:52:09;;;;;;;21.13;7.80;;;15.70;99.90;;;;;;4973533;28;20200;-64
2022/04/14 09:54:34;;;;;;;20.73;6.85;;;15.80;99.90;;;;;;4973464;28;20184;-64
2022/04/14 09:57:00;;;;;;;28.17;6.82;;;15.60;99.90;;;;;;4973290;28;20168;-63
2022/04/14 09:59:31;;;;;;;16.52;5.18;;;15.80;99.90;;;;;;4988168;28;20182;-64
2022/04/14 10:02:14;;;;;;;16.30;6.78;;;16.10;99.90;;;;;;4991773;28;20206;-63
2022/04/14 10:04:42;;;;;;;16.55;5.72;;;16.50;99.90;;;;;;4992121;28;20179;-63
2022/04/14 10:07:15;;;;;;;16.33;6.25;;;16.10;99.90;;;;;;4986865;28;20172;-64
2022/04/14 10:09:48;;;;;;;20.83;5.85;;;16.20;99.90;;;;;;4991972;28;20250;-63
2022/04/14 10:12:19;;;;;;;15.57;5.63;;;16.70;99.90;;;;;;4975995;28;20686;-64
2022/04/14 10:15:07;;;;;;;16.55;6.40;;;17.00;99.90;;;;;;4983847;28;20550;-63
2022/04/14 10:17:38;;;;;;;21.58;5.90;;;17.40;99.90;;;;;;4982966;28;20237;-64
2022/04/14 10:20:06;;;;;;;11.35;5.15;;;17.70;99.90;;;;;;4992408;28;20742;-64
2022/04/14 10:22:34;;;;;;;19.90;5.72;;;18.20;99.90;;;;;;4990956;28;20207;-64
2022/04/14 10:25:01;;;;;;;11.93;4.78;;;19.00;99.90;;;;;;4991892;28;20249;-64
2022/04/14 10:27:28;;;;;;;14.65;4.90;;;18.90;99.90;;;;;;4992205;28;20718;-64
2022/04/14 10:29:55;;;;;;;12.07;5.03;;;19.00;99.90;;;;;;4991721;28;20249;-64
2022/04/14 10:32:21;;;;;;;11.70;4.72;;;18.80;99.90;;;;;;4988613;28;20176;-64
2022/04/14 10:34:47;;;;;;;14.43;4.10;;;18.90;99.90;;;;;;4985483;28;20241;-64
2022/04/14 10:37:21;;;;;;;12.57;4.82;;;18.90;99.90;;;;;;4972537;28;20258;-64
2022/04/14 10:39:49;;;;;;;11.90;4.50;;;19.00;99.90;;;;;;4987136;28;20214;-64
2022/04/14 10:42:19;;;;;;;10.52;3.95;;;19.20;99.90;;;;;;4990657;28;20218;-57
2022/04/14 10:44:48;;;;;;;11.02;4.70;;;20.10;99.90;;;;;;4991591;28;20250;-57
2022/04/14 10:47:52;;;;;;;12.27;3.97;;;21.10;99.90;;;;;;4991582;28;20181;-57
2022/04/14 10:50:20;;;;;;;10.00;4.90;;;21.50;99.90;;;;;;4991745;28;20321;-57
2022/04/14 10:53:12;;;;;;;15.27;4.38;;;20.80;99.90;;;;;;4991725;28;20195;-57
2022/04/14 10:55:43;;;;;;;467.67;38.63;;;20.10;99.90;;;;;;4990834;28;20183;-56
2022/04/14 10:58:27;;;;;;;38.00;7.25;;;19.90;99.90;;;;;;4991276;28;20190;-56
2022/04/14 11:00:54;;;;;;;19.20;4.22;;;19.30;99.90;;;;;;4991093;28;20179;-56
2022/04/14 11:03:20;;;;;;;6.97;2.80;;;19.10;99.90;;;;;;4991319;28;20185;-56
2022/04/14 11:05:47;;;;;;;10.60;3.15;;;18.80;99.90;;;;;;4991166;28;20179;-57
2022/04/14 11:08:24;;;;;;;8.73;2.97;;;18.70;99.90;;;;;;4991075;28;20235;-56
2022/04/14 11:11:15;;;;;;;9.20;2.80;;;18.40;99.90;;;;;;4991170;28;20194;-57
2022/04/14 11:13:50;;;;;;;23.42;2.88;;;18.20;99.90;;;;;;4989971;28;20178;-58
2022/04/14 11:16:42;;;;;;;126.75;14.00;;;18.10;99.90;;;;;;4991040;28;20237;-57
2022/04/14 11:19:24;;;;;;;13.95;2.25;;;17.90;99.90;;;;;;4991379;28;20179;-57
2022/04/14 11:22:02;;;;;;;380.00;33.55;;;17.90;99.90;;;;;;4991121;28;20183;-57
2022/04/14 11:24:37;;;;;;;50.63;5.13;;;17.50;99.90;;;;;;4990368;28;20183;-57
2022/04/14 11:27:24;;;;;;;6.97;1.60;;;17.70;99.90;;;;;;4991340;28;20194;-57
2022/04/14 11:29:57;;;;;;;18.17;2.08;;;18.00;99.90;;;;;;4991173;28;20432;-56
2022/04/14 11:32:40;;;;;;;3.28;1.05;;;17.70;99.90;;;;;;4991047;28;20175;-56
2022/04/14 11:35:16;;;;;;;5.47;1.13;;;18.30;99.90;;;;;;4990603;28;20309;-57
2022/04/14 11:37:44;;;;;;;3.60;0.90;;;18.20;99.90;;;;;;4990924;28;20225;-56
2022/04/14 11:40:18;;;;;;;3.85;0.80;;;18.20;99.90;;;;;;4990808;28;20187;-56
2022/04/14 11:42:52;;;;;;;8.20;1.20;;;17.80;99.90;;;;;;4990989;28;20187;-56
2022/04/14 11:45:26;;;;;;;5.38;0.80;;;17.90;99.90;;;;;;4986579;28;20185;-57
2022/04/14 11:47:59;;;;;;;7.90;1.00;;;17.80;99.90;;;;;;4985221;28;20221;-56
2022/04/14 11:50:29;;;;;;;5.10;1.10;;;17.60;99.90;;;;;;4995022;28;20179;-57
2022/04/14 11:53:00;;;;;;;6.60;1.17;;;17.60;99.90;;;;;;4994275;28;20202;-56
2022/04/14 11:55:42;;;;;;;5.70;1.35;;;17.60;99.90;;;;;;4993827;28;20254;-58
2022/04/14 11:58:17;;;;;;;6.20;1.27;;;17.60;99.90;;;;;;4994361;28;20209;-56
2022/04/14 12:00:48;;;;;;;2.95;0.88;;;17.40;99.90;;;;;;4993796;28;20182;-57
2022/04/14 12:03:15;;;;;;;3.60;0.88;;;17.90;99.90;;;;;;4994193;28;20267;-56
2022/04/14 12:05:51;;;;;;;1.88;0.55;;;17.20;99.90;;;;;;4992875;28;20184;-56
2022/04/14 12:08:17;;;;;;;5.03;0.75;;;17.50;99.90;;;;;;4994270;28;20202;-57
2022/04/14 12:10:44;;;;;;;2.13;0.50;;;17.70;99.90;;;;;;4994736;28;20519;-55
2022/04/14 12:13:11;;;;;;;4.07;0.75;;;17.80;99.90;;;;;;4994887;28;20187;-55
2022/04/14 12:15:37;;;;;;;2.92;0.60;;;17.80;99.90;;;;;;4994342;28;20186;-56
2022/04/14 12:18:07;;;;;;;6.63;1.15;;;17.70;99.90;;;;;;4994560;28;20665;-56
2022/04/14 12:20:40;;;;;;;2.47;0.90;;;17.80;99.90;;;;;;4994345;28;20187;-57
2022/04/14 12:23:10;;;;;;;2.58;0.70;;;17.90;99.90;;;;;;4994563;28;20172;-56
2022/04/14 12:25:40;;;;;;;3.05;0.85;;;18.00;99.90;;;;;;4994072;28;20425;-57
2022/04/14 12:28:06;;;;;;;3.30;0.88;;;17.90;99.90;;;;;;4994454;28;20293;-56
2022/04/14 12:30:33;;;;;;;5.35;1.17;;;18.10;99.90;;;;;;4994434;28;20181;-57
2022/04/14 12:33:03;;;;;;;11.77;1.35;;;18.20;99.90;;;;;;4993853;28;20205;-56
2022/04/14 12:35:36;;;;;;;6.70;0.98;;;18.40;99.90;;;;;;4993565;28;20182;-56
2022/04/14 12:38:18;;;;;;;5.00;0.88;;;18.40;99.90;;;;;;4993930;28;20231;-56
2022/04/14 12:40:53;;;;;;;3.65;1.25;;;18.40;99.90;;;;;;4994039;28;20178;-57
2022/04/14 12:43:22;;;;;;;6.05;1.60;;;18.10;99.90;;;;;;4993678;28;20658;-57
2022/04/14 12:45:48;;;;;;;4.93;1.00;;;18.10;99.90;;;;;;4993634;28;20287;-57
2022/04/14 12:48:28;;;;;;;3.15;1.00;;;18.00;99.90;;;;;;4993985;28;20297;-57